Time;durP1;ratioP1;P1;durP2;ratioP2;P2;SDS_P1;SDS_P2;PMS_P1;PMS_P2;Temp;Humidity;BMP_temperature;BMP_pressure;BME280_temperature;BME280_humidity;BME280_pressure;Samples;Min_cycle;Max_cycle;Signal;HPM_P1;HPM_P2
2022/11/22 00:00:45;;;;;;;46.92;12.68;;;;;;;0.43;100.00;96843.19;2638694;28;20112;-91
2022/11/22 00:02:07;;;;;;;39.90;13.20;;;;;;;0.55;100.00;96836.13;2638674;28;20085;-90
2022/11/22 00:03:22;;;;;;;138.52;18.70;;;;;;;0.50;100.00;96831.91;2638367;28;20063;-90
2022/11/22 00:04:38;;;;;;;139.02;18.13;;;;;;;0.57;100.00;96836.13;2638296;28;20055;-92
2022/11/22 00:05:54;;;;;;;61.80;14.43;;;;;;;0.57;100.00;96833.56;2638241;28;20560;-91
2022/11/22 00:07:09;;;;;;;33.13;13.35;;;;;;;0.74;100.00;96832.44;2638577;28;20490;-91
2022/11/22 00:08:25;;;;;;;67.65;14.52;;;;;;;0.89;100.00;96833.94;2638174;28;20548;-90
2022/11/22 00:09:41;;;;;;;33.05;12.80;;;;;;;0.93;100.00;96836.44;2638306;28;20062;-89
2022/11/22 00:10:56;;;;;;;40.03;12.57;;;;;;;0.74;100.00;96833.28;2638135;28;20130;-92
2022/11/22 00:12:12;;;;;;;84.15;14.82;;;;;;;0.63;100.00;96845.47;2638176;28;20079;-92
2022/11/22 00:13:28;;;;;;;128.60;15.70;;;;;;;0.55;100.00;96853.28;2638532;28;20055;-90
2022/11/22 00:14:43;;;;;;;36.95;13.23;;;;;;;0.84;100.00;96852.06;2637782;28;20050;-93
2022/11/22 00:16:01;;;;;;;93.13;14.95;;;;;;;0.92;100.00;96847.63;2638280;28;20051;-90
2022/11/22 00:17:16;;;;;;;30.65;12.80;;;;;;;1.03;100.00;96847.44;2637733;28;20512;-91
2022/11/22 00:18:32;;;;;;;86.10;14.35;;;;;;;1.03;100.00;96844.88;2637201;28;20074;-90
2022/11/22 00:19:47;;;;;;;226.70;19.55;;;;;;;1.07;100.00;96848.25;2637387;28;20048;-91
2022/11/22 00:21:05;;;;;;;190.98;19.42;;;;;;;1.07;100.00;96840.53;2638346;28;20139;-91
2022/11/22 00:22:20;;;;;;;39.95;12.15;;;;;;;1.04;100.00;96840.59;2638189;28;20228;-90
2022/11/22 00:23:36;;;;;;;120.80;15.50;;;;;;;1.10;100.00;96833.59;2638106;28;20111;-91
2022/11/22 00:24:52;;;;;;;150.27;17.13;;;;;;;1.16;100.00;96831.78;2637350;28;20052;-91
2022/11/22 00:26:10;;;;;;;99.90;13.70;;;;;;;1.16;100.00;96831.78;2637722;28;20043;-90
2022/11/22 00:27:26;;;;;;;141.18;15.00;;;;;;;1.20;100.00;96828.31;2638101;28;20051;-92
2022/11/22 00:28:41;;;;;;;135.43;17.95;;;;;;;1.13;100.00;96832.72;2637890;28;20485;-91
2022/11/22 00:29:57;;;;;;;78.10;12.85;;;;;;;0.88;100.00;96838.25;2638124;28;20062;-90
2022/11/22 00:31:13;;;;;;;108.78;13.90;;;;;;;0.86;100.00;96840.00;2637160;28;20040;-91
2022/11/22 00:32:28;;;;;;;50.45;11.80;;;;;;;1.05;100.00;96830.25;2637722;28;20067;-91
2022/11/22 00:33:44;;;;;;;68.50;13.48;;;;;;;1.00;100.00;96831.22;2638559;28;20051;-89
2022/11/22 00:35:00;;;;;;;62.38;13.05;;;;;;;0.80;100.00;96833.22;2638196;28;20159;-93
2022/11/22 00:36:16;;;;;;;58.72;12.73;;;;;;;0.67;100.00;96832.53;2638154;28;20176;-91
2022/11/22 00:37:31;;;;;;;62.58;12.50;;;;;;;0.76;100.00;96834.09;2637654;28;20057;-94
2022/11/22 00:38:47;;;;;;;155.95;15.38;;;;;;;0.88;100.00;96832.22;2637994;28;20048;-90
2022/11/22 00:40:04;;;;;;;104.20;13.75;;;;;;;0.55;100.00;96835.28;2638337;28;20056;-91
2022/11/22 00:41:19;;;;;;;110.63;14.77;;;;;;;0.53;100.00;96832.75;2638201;28;20611;-91
2022/11/22 00:42:35;;;;;;;86.13;13.98;;;;;;;0.76;100.00;96835.84;2638244;28;20075;-91
2022/11/22 00:43:51;;;;;;;120.30;14.52;;;;;;;0.73;100.00;96833.31;2638135;28;20142;-91
2022/11/22 00:45:07;;;;;;;83.05;12.55;;;;;;;0.62;100.00;96830.88;2637856;28;20605;-92
2022/11/22 00:46:23;;;;;;;106.07;14.20;;;;;;;0.84;100.00;96831.44;2638197;28;20051;-90
2022/11/22 00:47:38;;;;;;;91.05;12.80;;;;;;;0.78;100.00;96834.09;2637601;28;20082;-90
2022/11/22 00:48:54;;;;;;;119.43;13.85;;;;;;;0.83;100.00;96838.31;2636743;28;20048;-89
2022/11/22 00:50:10;;;;;;;104.97;14.32;;;;;;;0.67;100.00;96837.69;2637620;28;20055;-91
2022/11/22 00:51:25;;;;;;;120.55;13.98;;;;;;;0.58;100.00;96839.53;2637983;28;20104;-91
2022/11/22 00:52:41;;;;;;;84.80;12.52;;;;;;;0.71;100.00;96835.91;2638311;28;20058;-91
2022/11/22 00:53:56;;;;;;;51.35;11.93;;;;;;;0.79;100.00;96838.38;2637877;28;20288;-90
2022/11/22 00:55:12;;;;;;;62.33;12.90;;;;;;;0.35;100.00;96840.69;2636945;28;20376;-90
2022/11/22 00:56:27;;;;;;;42.90;12.57;;;;;;;0.31;100.00;96837.31;2637515;28;20047;-88
2022/11/22 00:57:43;;;;;;;69.10;13.95;;;;;;;0.18;100.00;96833.22;2637763;28;20047;-90
2022/11/22 00:58:58;;;;;;;93.80;14.43;;;;;;;0.26;100.00;96833.94;2636997;28;20532;-91
2022/11/22 01:00:15;;;;;;;98.70;16.13;;;;;;;0.35;100.00;96828.69;2637797;28;20851;-90
2022/11/22 01:01:30;;;;;;;81.45;14.93;;;;;;;0.46;100.00;96819.97;2638084;28;20047;-90
2022/11/22 01:02:46;;;;;;;76.63;14.82;;;;;;;0.53;100.00;96813.84;2637843;28;20047;-89
2022/11/22 01:04:01;;;;;;;82.43;13.82;;;;;;;0.55;100.00;96812.09;2637705;28;20081;-92
2022/11/22 01:05:18;;;;;;;82.97;13.60;;;;;;;0.60;100.00;96814.59;2637364;28;20112;-90
2022/11/22 01:06:34;;;;;;;75.90;12.15;;;;;;;0.48;100.00;96811.34;2638044;28;20045;-89
2022/11/22 01:07:50;;;;;;;73.15;11.88;;;;;;;0.66;100.00;96817.94;2637835;28;20050;-91
2022/11/22 01:09:05;;;;;;;26.90;11.38;;;;;;;0.64;100.00;96811.13;2637864;28;20914;-89
2022/11/22 01:10:22;;;;;;;35.33;10.93;;;;;;;0.74;100.00;96809.28;2636986;28;20063;-91
2022/11/22 01:11:37;;;;;;;36.63;11.77;;;;;;;0.62;100.00;96803.41;2637112;28;20083;-91
2022/11/22 01:12:53;;;;;;;42.35;11.80;;;;;;;0.43;100.00;96797.69;2638069;28;20047;-90
2022/11/22 01:14:08;;;;;;;44.42;11.75;;;;;;;0.46;100.00;96795.06;2637913;28;20164;-91
2022/11/22 01:15:24;;;;;;;52.75;11.77;;;;;;;0.46;100.00;96800.22;2637146;28;20130;-94
2022/11/22 01:16:40;;;;;;;44.10;11.13;;;;;;;0.45;100.00;96795.09;2637690;28;20039;-90
2022/11/22 01:17:55;;;;;;;20.55;9.85;;;;;;;0.74;100.00;96786.91;2638299;28;20047;-90
2022/11/22 01:19:11;;;;;;;35.63;11.02;;;;;;;0.66;100.00;96786.22;2637914;28;20551;-90
2022/11/22 01:20:29;;;;;;;27.15;10.68;;;;;;;0.74;100.00;96780.94;2637102;28;20075;-91
2022/11/22 01:21:45;;;;;;;32.30;11.13;;;;;;;0.65;100.00;96785.34;2637675;28;20040;-91
2022/11/22 01:23:00;;;;;;;57.58;12.77;;;;;;;0.43;100.00;96784.81;2638073;28;20052;-93
2022/11/22 01:24:16;;;;;;;53.33;11.98;;;;;;;0.52;100.00;96786.41;2636852;28;20055;-90
2022/11/22 01:25:32;;;;;;;34.67;10.88;;;;;;;0.57;100.00;96784.63;2637039;28;20082;-90
2022/11/22 01:26:47;;;;;;;46.50;11.05;;;;;;;0.58;100.00;96788.03;2637783;28;20043;-90
2022/11/22 01:28:03;;;;;;;50.17;10.68;;;;;;;0.47;100.00;96781.31;2637882;28;20497;-90
2022/11/22 01:29:18;;;;;;;55.90;11.25;;;;;;;0.41;100.00;96782.25;2637839;28;20387;-91
2022/11/22 01:30:34;;;;;;;35.97;10.73;;;;;;;0.50;100.00;96781.28;2637102;28;20127;-93
2022/11/22 01:31:50;;;;;;;38.22;11.23;;;;;;;0.44;100.00;96780.53;2637360;28;20039;-93
2022/11/22 01:33:05;;;;;;;53.60;11.00;;;;;;;0.35;100.00;96771.19;2638138;28;20923;-91
2022/11/22 01:34:21;;;;;;;35.63;9.75;;;;;;;0.17;100.00;96767.16;2637658;28;20051;-90
2022/11/22 01:35:37;;;;;;;32.03;10.20;;;;;;;0.45;100.00;96771.94;2637765;28;20114;-90
2022/11/22 01:36:52;;;;;;;50.13;11.07;;;;;;;0.21;100.00;96774.81;2636621;28;20047;-90
2022/11/22 01:38:08;;;;;;;36.13;10.38;;;;;;;0.06;100.00;96778.44;2637240;28;20323;-91
2022/11/22 01:39:24;;;;;;;36.28;10.10;;;;;;;0.12;100.00;96775.78;2637606;28;20082;-91
2022/11/22 01:40:40;;;;;;;35.28;10.23;;;;;;;0.19;100.00;96773.97;2637925;28;20048;-91
2022/11/22 01:41:55;;;;;;;48.78;11.55;;;;;;;0.37;100.00;96775.44;2637774;28;20044;-90
2022/11/22 01:43:20;;;;;;;66.38;12.43;;;;;;;0.50;100.00;96780.41;2637653;28;20031;-91
2022/11/22 01:44:39;;;;;;;51.42;11.20;;;;;;;0.40;100.00;96783.13;2637726;28;20575;-90
2022/11/22 01:45:56;;;;;;;33.40;10.07;;;;;;;0.32;100.00;96778.94;2637835;28;20052;-90
2022/11/22 01:47:20;;;;;;;37.15;10.70;;;;;;;0.38;100.00;96778.88;2637988;28;20100;-91
2022/11/22 01:48:48;;;;;;;40.67;11.77;;;;;;;0.25;100.00;96780.75;2637826;28;20138;-92
2022/11/22 01:50:06;;;;;;;36.00;9.93;;;;;;;0.25;100.00;96783.34;2637798;28;20055;-91
2022/11/22 01:51:27;;;;;;;35.17;10.65;;;;;;;0.25;100.00;96780.75;2638004;28;20486;-92
2022/11/22 01:52:42;;;;;;;49.53;11.05;;;;;;;0.20;100.00;96778.25;2637921;28;20086;-90
2022/11/22 01:54:03;;;;;;;40.95;10.20;;;;;;;0.21;100.00;96785.13;2638690;28;20044;-91
2022/11/22 01:55:19;;;;;;;48.03;11.18;;;;;;;0.06;100.00;96781.00;2637564;28;20054;-91
2022/11/22 01:56:36;;;;;;;35.13;9.82;;;;;;;0.17;100.00;96777.47;2637746;28;20055;-90
2022/11/22 01:57:51;;;;;;;30.85;10.05;;;;;;;0.16;100.00;96775.75;2637110;28;20460;-91
2022/11/22 01:59:11;;;;;;;35.38;10.68;;;;;;;0.37;100.00;96772.88;2638040;28;20075;-92
2022/11/22 02:00:26;;;;;;;34.47;9.90;;;;;;;0.39;100.00;96775.44;2639845;28;20067;-90
2022/11/22 02:01:42;;;;;;;45.15;11.73;;;;;;;0.49;100.00;96768.41;2639987;28;20066;-90
2022/11/22 02:03:00;;;;;;;46.45;10.88;;;;;;;0.61;100.00;96773.41;2640414;28;20055;-92
2022/11/22 02:04:18;;;;;;;39.28;10.38;;;;;;;0.44;100.00;96767.66;2640070;28;20478;-90
2022/11/22 02:05:34;;;;;;;31.05;10.27;;;;;;;0.44;100.00;96765.06;2639888;28;20116;-91
2022/11/22 02:06:58;;;;;;;35.90;11.05;;;;;;;0.66;100.00;96760.44;2639666;28;20088;-92
2022/11/22 02:08:40;;;;;;;36.55;11.15;;;;;;;0.70;100.00;96756.94;2640025;28;20044;-93
2022/11/22 02:09:56;;;;;;;55.05;10.65;;;;;;;0.73;100.00;96753.47;2639803;28;20413;-91
2022/11/22 02:11:12;;;;;;;32.53;10.55;;;;;;;0.63;100.00;96756.19;2639767;28;20127;-91
2022/11/22 02:12:30;;;;;;;45.85;10.45;;;;;;;0.80;100.00;96753.34;2639728;28;20056;-91
2022/11/22 02:13:48;;;;;;;31.40;9.77;;;;;;;0.53;100.00;96754.63;2639564;28;20052;-90
2022/11/22 02:15:04;;;;;;;57.25;10.68;;;;;;;0.29;100.00;96756.69;2639689;28;20040;-91
2022/11/22 02:16:20;;;;;;;65.47;11.55;;;;;;;0.41;100.00;96755.66;2638620;28;20508;-91
2022/11/22 02:17:36;;;;;;;39.85;11.93;;;;;;;0.70;100.00;96751.78;2639480;28;20649;-92
2022/11/22 02:18:51;;;;;;;92.15;12.02;;;;;;;0.76;100.00;96750.84;2639680;28;20093;-90
2022/11/22 02:20:08;;;;;;;60.65;11.75;;;;;;;0.72;100.00;96751.78;2639751;28;20405;-90
2022/11/22 02:21:23;;;;;;;58.08;12.15;;;;;;;0.72;100.00;96749.19;2639779;28;20054;-90
2022/11/22 02:23:11;;;;;;;79.40;11.88;;;;;;;0.74;100.00;96744.88;2639997;28;20075;-93
2022/11/22 02:25:00;;;;;;;71.60;11.73;;;;;;;0.70;100.00;96744.94;2606090;28;20077;-93
2022/11/22 02:26:16;;;;;;;45.72;10.38;;;;;;;0.36;100.00;96753.16;2611909;28;20109;-90
2022/11/22 02:27:32;;;;;;;22.27;9.55;;;;;;;0.56;100.00;96754.59;2639904;28;20100;-91
2022/11/22 02:28:51;;;;;;;128.57;12.95;;;;;;;0.54;100.00;96752.03;2639879;28;20047;-91
2022/11/22 02:30:07;;;;;;;79.07;11.63;;;;;;;0.54;100.00;96751.16;2639619;28;20052;-93
2022/11/22 02:31:34;;;;;;;96.50;13.07;;;;;;;0.30;100.00;96763.56;2639891;28;20058;-91
2022/11/22 02:32:50;;;;;;;51.08;11.05;;;;;;;0.34;100.00;96762.63;2640030;28;20478;-90
2022/11/22 02:34:06;;;;;;;35.00;10.55;;;;;;;0.45;100.00;96756.47;2639800;28;20048;-91
2022/11/22 02:35:25;;;;;;;47.03;11.60;;;;;;;0.47;100.00;96765.03;2639397;28;20048;-90
2022/11/22 02:36:44;;;;;;;50.58;11.27;;;;;;;0.46;100.00;96756.44;2639354;28;20054;-93
2022/11/22 02:38:16;;;;;;;60.58;11.40;;;;;;;0.23;100.00;96760.22;2638691;28;20067;-89
2022/11/22 02:39:32;;;;;;;68.97;11.77;;;;;;;0.30;100.00;96762.69;2639820;28;20060;-92
2022/11/22 02:40:55;;;;;;;46.30;11.05;;;;;;;0.22;100.00;96767.94;2639566;28;20925;-93
2022/11/22 02:42:11;;;;;;;50.83;10.82;;;;;;;0.33;100.00;96768.66;2639318;28;20039;-91
2022/11/22 02:43:33;;;;;;;81.35;12.70;;;;;;;0.43;100.00;96771.94;2639322;28;20086;-91
2022/11/22 02:44:49;;;;;;;56.45;11.43;;;;;;;0.53;100.00;96767.50;2639340;28;20492;-91
2022/11/22 02:46:06;;;;;;;53.15;9.75;;;;;;;0.53;100.00;96770.06;2639399;28;20043;-90
2022/11/22 02:47:22;;;;;;;53.30;10.60;;;;;;;0.45;100.00;96767.59;2639300;28;20482;-91
2022/11/22 02:48:41;;;;;;;42.45;10.52;;;;;;;0.34;100.00;96764.34;2639523;28;20071;-92
2022/11/22 02:49:57;;;;;;;52.60;10.30;;;;;;;0.29;100.00;96761.84;2639213;28;20047;-90
2022/11/22 02:51:15;;;;;;;52.13;9.65;;;;;;;0.30;100.00;96765.25;2638627;28;20047;-91
2022/11/22 02:52:31;;;;;;;44.47;11.32;;;;;;;0.50;100.00;96762.41;2638983;28;20082;-90
2022/11/22 02:53:48;;;;;;;80.13;12.07;;;;;;;0.27;100.00;96761.84;2639761;28;20547;-96
2022/11/22 02:55:04;;;;;;;45.22;10.82;;;;;;;0.47;100.00;96765.84;2639431;28;20055;-93
2022/11/22 02:56:19;;;;;;;36.75;9.60;;;;;;;0.29;100.00;96767.00;2638842;28;20040;-90
2022/11/22 02:57:35;;;;;;;37.17;10.35;;;;;;;0.55;100.00;96761.47;2638879;28;20440;-94
2022/11/22 02:58:51;;;;;;;50.10;12.15;;;;;;;0.71;100.00;96761.22;2639604;28;20047;-93
2022/11/22 03:00:07;;;;;;;32.60;10.82;;;;;;;0.72;100.00;96759.50;2639360;28;20059;-94
2022/11/22 03:01:22;;;;;;;44.60;11.68;;;;;;;0.63;100.00;96756.19;2639145;28;20052;-93
2022/11/22 03:02:38;;;;;;;42.35;11.50;;;;;;;0.60;100.00;96755.38;2639059;28;20118;-89
2022/11/22 03:03:54;;;;;;;35.38;10.57;;;;;;;0.63;100.00;96770.78;2639153;28;20650;-93
2022/11/22 03:05:09;;;;;;;55.45;11.05;;;;;;;0.63;100.00;96758.75;2638932;28;20040;-93
2022/11/22 03:06:25;;;;;;;38.17;10.60;;;;;;;0.69;100.00;96758.66;2639072;28;20051;-93
2022/11/22 03:07:41;;;;;;;36.55;11.75;;;;;;;0.65;100.00;96757.00;2638980;28;20165;-93
2022/11/22 03:08:56;;;;;;;45.83;11.15;;;;;;;0.65;100.00;96754.44;2638932;28;20220;-96
2022/11/22 03:10:12;;;;;;;36.70;10.73;;;;;;;0.67;100.00;96757.81;2638879;28;20478;-93
2022/11/22 03:11:27;;;;;;;38.33;10.48;;;;;;;0.81;100.00;96757.63;2638242;28;20059;-94
2022/11/22 03:12:43;;;;;;;40.83;11.73;;;;;;;0.84;100.00;96761.88;2639449;28;20043;-93
2022/11/22 03:13:59;;;;;;;31.60;10.48;;;;;;;0.71;100.00;96761.22;2639270;28;20406;-95
2022/11/22 03:15:15;;;;;;;38.13;11.80;;;;;;;0.49;100.00;96768.41;2639410;27;20054;-93
2022/11/22 03:16:30;;;;;;;38.60;10.13;;;;;;;0.46;100.00;96771.88;2639351;28;20473;-92
2022/11/22 03:17:46;;;;;;;39.80;11.40;;;;;;;0.54;100.00;96772.63;2639314;28;20565;-93
2022/11/22 03:19:01;;;;;;;40.70;10.98;;;;;;;0.65;100.00;96769.88;2638660;28;20043;-92
2022/11/22 03:20:17;;;;;;;22.50;10.25;;;;;;;0.67;100.00;96775.03;2638983;28;20040;-92
2022/11/22 03:21:32;;;;;;;31.30;10.65;;;;;;;0.74;100.00;96762.91;2639281;28;20428;-93
2022/11/22 03:22:48;;;;;;;34.35;12.00;;;;;;;0.84;100.00;96767.03;2639182;28;20484;-92
2022/11/22 03:24:04;;;;;;;26.02;10.15;;;;;;;0.74;100.00;96762.91;2639308;28;20501;-93
2022/11/22 03:25:20;;;;;;;26.35;10.20;;;;;;;0.65;100.00;96769.88;2639088;28;20513;-93
2022/11/22 03:26:36;;;;;;;27.25;10.68;;;;;;;0.66;100.00;96771.59;2638385;28;20078;-94
2022/11/22 03:27:51;;;;;;;26.08;10.32;;;;;;;0.71;100.00;96763.78;2632349;28;20043;-93
2022/11/22 03:29:07;;;;;;;23.73;10.30;;;;;;;0.76;100.00;96764.56;2638683;28;20039;-93
2022/11/22 03:30:22;;;;;;;25.33;10.43;;;;;;;0.95;100.00;96759.97;2639385;28;20047;-92
2022/11/22 03:31:38;;;;;;;23.08;9.63;;;;;;;0.87;100.00;96754.09;2639083;28;20075;-93
2022/11/22 03:32:54;;;;;;;18.45;9.57;;;;;;;1.01;100.00;96753.00;2639113;28;20571;-93
2022/11/22 03:34:11;;;;;;;22.98;10.30;;;;;;;1.13;100.00;96752.81;2638692;28;21029;-94
2022/11/22 03:35:27;;;;;;;27.73;11.63;;;;;;;0.70;100.00;96746.63;2639258;28;20506;-91
2022/11/22 03:36:42;;;;;;;22.73;10.25;;;;;;;0.82;100.00;96740.41;2639217;28;20401;-93
2022/11/22 03:37:58;;;;;;;26.08;10.70;;;;;;;0.78;100.00;96746.50;2639154;28;20130;-93
2022/11/22 03:39:13;;;;;;;25.60;9.95;;;;;;;0.88;100.00;96740.34;2638858;28;20039;-92
2022/11/22 03:40:29;;;;;;;26.15;10.80;;;;;;;1.01;100.00;96740.13;2639067;28;20052;-93
2022/11/22 03:41:45;;;;;;;28.27;10.57;;;;;;;1.00;100.00;96741.00;2639302;28;20075;-93
2022/11/22 03:43:01;;;;;;;23.30;9.70;;;;;;;0.98;100.00;96741.88;2639393;28;20043;-93
2022/11/22 03:44:17;;;;;;;22.85;10.50;;;;;;;0.87;100.00;96743.78;2639320;27;20059;-91
2022/11/22 03:45:32;;;;;;;26.23;10.45;;;;;;;0.69;100.00;96745.78;2639292;28;20047;-92
2022/11/22 03:46:48;;;;;;;23.05;10.73;;;;;;;0.64;100.00;96744.16;2639222;28;20214;-93
2022/11/22 03:48:04;;;;;;;31.08;11.63;;;;;;;0.86;100.00;96739.53;2639262;28;20071;-92
2022/11/22 03:49:20;;;;;;;23.05;10.07;;;;;;;0.84;100.00;96741.28;2638919;28;20086;-92
2022/11/22 03:50:35;;;;;;;27.13;10.85;;;;;;;0.88;100.00;96740.34;2639106;28;20052;-93
2022/11/22 03:51:51;;;;;;;30.50;11.35;;;;;;;0.62;100.00;96733.88;2638972;28;20048;-92
2022/11/22 03:53:07;;;;;;;23.90;9.82;;;;;;;0.75;100.00;96734.53;2639401;28;20064;-92
2022/11/22 03:54:22;;;;;;;27.77;10.48;;;;;;;0.88;100.00;96734.31;2639084;28;20089;-93
2022/11/22 03:55:39;;;;;;;21.90;9.82;;;;;;;0.96;100.00;96732.47;2639322;28;20125;-93
2022/11/22 03:56:54;;;;;;;21.77;10.70;;;;;;;1.13;100.00;96730.44;2638936;28;20047;-92
2022/11/22 03:58:10;;;;;;;31.58;10.90;;;;;;;0.66;100.00;96729.53;2638688;28;21169;-92
2022/11/22 03:59:25;;;;;;;32.55;11.45;;;;;;;0.60;100.00;96733.06;2638849;28;20104;-94
2022/11/22 04:00:41;;;;;;;28.30;10.88;;;;;;;0.66;100.00;96732.94;2639045;28;20047;-93
2022/11/22 04:01:57;;;;;;;22.60;9.98;;;;;;;0.69;100.00;96730.31;2639175;28;20051;-93
2022/11/22 04:03:12;;;;;;;35.30;10.98;;;;;;;0.54;100.00;96739.16;2638070;28;20036;-94
2022/11/22 04:04:28;;;;;;;25.55;11.10;;;;;;;0.61;100.00;96742.50;2638610;28;20562;-93
2022/11/22 04:05:44;;;;;;;25.70;10.75;;;;;;;0.23;100.00;96752.50;2638694;28;20044;-92
2022/11/22 04:07:00;;;;;;;19.48;8.20;;;;;;;0.25;100.00;96744.72;2638886;28;20047;-91
2022/11/22 04:08:15;;;;;;;28.02;10.90;;;;;;;0.81;100.00;96755.06;2638622;28;20051;-93
2022/11/22 04:09:31;;;;;;;26.45;10.65;;;;;;;0.95;100.00;96744.50;2638515;28;20043;-93
2022/11/22 04:10:48;;;;;;;22.48;9.50;;;;;;;1.06;100.00;96736.59;2639026;28;20043;-92
2022/11/22 04:12:04;;;;;;;26.95;11.30;;;;;;;1.11;100.00;96739.06;2638947;28;20055;-93
2022/11/22 04:13:19;;;;;;;26.05;11.23;;;;;;;1.01;100.00;96743.53;2639034;28;20048;-92
2022/11/22 04:16:09;;;;;;;26.67;10.48;;;;;;;1.06;100.00;96748.63;2638833;28;20075;-92
2022/11/22 04:17:40;;;;;;;24.70;11.15;;;;;;;1.08;100.00;96754.59;2638829;28;20096;-92
2022/11/22 04:18:56;;;;;;;25.08;10.50;;;;;;;1.09;100.00;96753.72;2639060;28;20039;-93
2022/11/22 04:21:51;;;;;;;28.30;10.88;;;;;;;1.27;100.00;96756.00;2638397;28;20040;-94
2022/11/22 04:23:18;;;;;;;25.60;10.98;;;;;;;1.16;100.00;96764.78;2638787;28;20043;-92
2022/11/22 04:26:08;;;;;;;22.23;10.13;;;;;;;1.26;100.00;96766.31;2638760;28;20056;-92
2022/11/22 04:27:23;;;;;;;24.88;10.70;;;;;;;1.23;100.00;96762.06;2638733;28;20047;-95
2022/11/22 04:28:39;;;;;;;27.35;10.95;;;;;;;1.29;100.00;96761.09;2638701;28;20043;-92
2022/11/22 04:29:54;;;;;;;26.60;11.00;;;;;;;1.33;100.00;96754.16;2638884;28;20043;-93
2022/11/22 04:32:44;;;;;;;22.35;10.07;;;;;;;1.12;100.00;96749.38;2638645;28;20051;-93
2022/11/22 04:34:00;;;;;;;22.20;10.02;;;;;;;1.24;100.00;96750.88;2638877;28;20044;-95
2022/11/22 04:35:17;;;;;;;41.78;16.88;;;;;;;1.18;100.00;96751.00;2638546;28;20052;-94
2022/11/22 04:36:33;;;;;;;34.92;15.38;;;;;;;1.18;100.00;96758.72;2638590;28;20051;-93
2022/11/22 04:37:50;;;;;;;49.10;20.98;;;;;;;1.20;100.00;96750.97;2637489;28;20155;-91
2022/11/22 04:39:06;;;;;;;61.85;24.63;;;;;;;1.18;100.00;96757.84;2636968;28;20039;-91
2022/11/22 04:40:21;;;;;;;35.50;16.13;;;;;;;1.20;100.00;96759.53;2637585;28;20092;-90
2022/11/22 04:41:37;;;;;;;26.88;12.57;;;;;;;1.13;100.00;96760.53;2636977;28;20096;-91
2022/11/22 04:44:41;;;;;;;22.77;9.93;;;;;;;1.17;100.00;96772.50;2637475;28;20130;-91
2022/11/22 04:45:57;;;;;;;27.10;14.02;;;;;;;1.27;100.00;96776.63;2638003;28;20446;-92
2022/11/22 04:48:50;;;;;;;22.30;10.52;;;;;;;1.07;100.00;96776.09;2637304;28;20557;-90
2022/11/22 04:52:52;;;;;;;18.42;9.93;;;;;;;1.08;100.00;96777.78;2637686;28;20414;-92
2022/11/22 04:53:18;;;;;;;18.85;9.63;;;;;;;1.40;100.00;96784.97;2637772;28;20146;-90
2022/11/22 04:54:33;;;;;;;20.90;11.05;;;;;;;1.41;100.00;96778.09;2637620;28;20482;-91
2022/11/22 04:55:49;;;;;;;28.02;13.52;;;;;;;1.37;100.00;96779.00;2637539;28;20048;-90
2022/11/22 04:57:05;;;;;;;26.67;14.02;;;;;;;1.32;100.00;96786.00;2637521;28;20417;-92
2022/11/22 04:58:21;;;;;;;25.23;11.55;;;;;;;0.93;100.00;96779.75;2636699;28;20063;-90
2022/11/22 04:59:37;;;;;;;30.65;12.93;;;;;;;0.94;100.00;96780.63;2637249;28;20081;-88
2022/11/22 05:00:54;;;;;;;36.03;12.23;;;;;;;1.18;100.00;96781.06;2636426;28;20089;-89
2022/11/22 05:02:10;;;;;;;33.47;11.70;;;;;;;1.06;100.00;96770.09;2630453;28;20448;-91
2022/11/22 05:03:25;;;;;;;36.40;12.95;;;;;;;1.09;100.00;96775.19;2637108;28;20051;-92
2022/11/22 05:04:41;;;;;;;33.88;12.30;;;;;;;1.29;100.00;96780.88;2637821;28;20043;-90
2022/11/22 05:06:00;;;;;;;35.42;11.88;;;;;;;1.34;100.00;96785.09;2637626;28;20626;-91
2022/11/22 05:07:16;;;;;;;33.53;11.85;;;;;;;1.27;100.00;96778.31;2637961;28;20047;-91
2022/11/22 05:08:31;;;;;;;37.47;12.68;;;;;;;1.27;100.00;96779.19;2637257;28;20111;-92
2022/11/22 05:09:47;;;;;;;30.88;12.63;;;;;;;1.50;100.00;96777.91;2637387;28;20043;-92
2022/11/22 05:11:03;;;;;;;28.52;11.30;;;;;;;1.51;100.00;96774.44;2637387;28;20109;-92
2022/11/22 05:12:18;;;;;;;31.10;11.05;;;;;;;1.57;100.00;96781.22;2638609;28;20055;-92
2022/11/22 05:13:38;;;;;;;26.40;10.65;;;;;;;1.59;100.00;96774.28;2637470;28;20063;-90
2022/11/22 05:14:54;;;;;;;29.65;11.27;;;;;;;1.47;100.00;96775.38;2637449;28;20573;-90
2022/11/22 05:16:13;;;;;;;24.52;10.52;;;;;;;1.55;100.00;96778.69;2637563;28;20044;-92
2022/11/22 05:17:28;;;;;;;25.27;11.15;;;;;;;1.57;100.00;96773.47;2637545;28;20205;-91
2022/11/22 05:18:57;;;;;;;29.77;11.30;;;;;;;1.66;100.00;96770.75;2637596;28;20101;-91
2022/11/22 05:20:13;;;;;;;38.20;11.25;;;;;;;1.53;100.00;96780.41;2637593;28;20109;-91
2022/11/22 05:21:29;;;;;;;32.83;12.40;;;;;;;1.57;100.00;96775.22;2637555;28;20436;-91
2022/11/22 05:24:19;;;;;;;31.25;12.02;;;;;;;1.65;100.00;96784.50;2637619;28;20079;-90
2022/11/22 05:25:34;;;;;;;35.85;12.50;;;;;;;1.64;100.00;96790.56;2637679;28;20047;-90
2022/11/22 05:26:50;;;;;;;27.92;12.25;;;;;;;1.57;100.00;96791.53;2637752;28;20055;-91
2022/11/22 05:28:05;;;;;;;28.92;11.00;;;;;;;1.47;100.00;96785.72;2637495;28;20519;-90
2022/11/22 05:29:21;;;;;;;23.52;11.15;;;;;;;1.41;100.00;96784.09;2637041;28;20048;-91
2022/11/22 05:30:40;;;;;;;27.00;11.40;;;;;;;1.29;100.00;96779.16;2636908;28;20055;-92
2022/11/22 05:31:56;;;;;;;24.60;11.00;;;;;;;1.47;100.00;96779.72;2637298;28;20158;-93
2022/11/22 05:33:11;;;;;;;23.92;11.32;;;;;;;1.47;100.00;96785.72;2637628;28;20044;-91
2022/11/22 05:34:27;;;;;;;24.75;11.57;;;;;;;1.52;100.00;96783.03;2638591;28;20051;-90
2022/11/22 05:35:42;;;;;;;25.30;11.43;;;;;;;1.51;100.00;96782.19;2639863;28;20062;-92
2022/11/22 05:36:58;;;;;;;25.40;11.15;;;;;;;1.46;100.00;96784.00;2639638;28;20055;-92
2022/11/22 05:38:14;;;;;;;27.13;11.05;;;;;;;1.16;100.00;96786.25;2639548;28;20043;-93
2022/11/22 05:39:29;;;;;;;30.70;13.52;;;;;;;1.32;100.00;96783.41;2639416;28;20532;-89
2022/11/22 05:40:45;;;;;;;35.85;12.52;;;;;;;1.50;100.00;96787.38;2639770;28;20047;-92
2022/11/22 05:42:01;;;;;;;23.30;10.60;;;;;;;1.52;100.00;96781.31;2640132;28;20270;-91
2022/11/22 05:43:16;;;;;;;34.90;13.40;;;;;;;1.49;100.00;96785.69;2640451;28;20417;-93
2022/11/22 05:44:32;;;;;;;30.45;12.90;;;;;;;1.47;100.00;96784.88;2640386;28;20401;-93
2022/11/22 05:45:48;;;;;;;28.10;12.20;;;;;;;1.48;100.00;96787.41;2640013;28;20741;-93
2022/11/22 05:47:04;;;;;;;29.02;11.68;;;;;;;1.62;100.00;96784.59;2640116;28;20043;-93
2022/11/22 05:48:19;;;;;;;23.27;10.90;;;;;;;1.58;100.00;96785.50;2640088;28;20055;-92
2022/11/22 05:49:35;;;;;;;26.05;11.48;;;;;;;1.44;100.00;96778.03;2640241;28;20048;-93
2022/11/22 05:50:51;;;;;;;29.73;11.13;;;;;;;1.47;100.00;96779.72;2640365;28;20048;-93
2022/11/22 05:52:07;;;;;;;25.55;11.65;;;;;;;1.47;100.00;96774.56;2640335;28;20043;-93
2022/11/22 05:53:23;;;;;;;24.80;10.98;;;;;;;1.60;100.00;96764.84;2640502;28;20776;-94
2022/11/22 05:54:39;;;;;;;27.50;11.45;;;;;;;1.65;100.00;96766.47;2640024;28;20059;-93
2022/11/22 05:55:54;;;;;;;24.95;10.95;;;;;;;1.50;100.00;96764.19;2640476;28;20051;-92
2022/11/22 05:57:10;;;;;;;24.85;11.05;;;;;;;1.43;100.00;96763.44;2640436;28;20043;-93
2022/11/22 05:58:26;;;;;;;27.40;12.02;;;;;;;1.33;100.00;96762.75;2639909;28;20052;-93
2022/11/22 05:59:41;;;;;;;25.45;11.65;;;;;;;1.43;100.00;96752.25;2640470;28;20135;-93
2022/11/22 06:01:02;;;;;;;26.77;11.50;;;;;;;1.49;100.00;96747.84;2640441;28;20048;-92
2022/11/22 06:02:18;;;;;;;29.63;11.23;;;;;;;1.59;100.00;96748.50;2641148;28;20253;-92
2022/11/22 06:03:35;;;;;;;25.30;11.48;;;;;;;1.59;100.00;96748.50;2639871;28;20054;-92
2022/11/22 06:04:50;;;;;;;27.00;10.80;;;;;;;1.63;100.00;96750.16;2640528;28;20050;-94
2022/11/22 06:06:07;;;;;;;52.97;20.83;;;;;;;1.69;100.00;96754.34;2640603;28;20079;-93